Latest Coastal Weather Observations for Yarram Airport

IDV60701

Issued at 1:21 pm EDT Monday 5 December 2016 (issued every 10 minutes, with the page automatically refreshed every 10 minutes)

About coastal observations | Map of coastal stations | Coastal observations for VIC | Marine services | Other Formats
Station Details ID: 085151 Name: YARRAM AIRPORT Lat: -38.56 Lon: 146.75 Height: 17.9 m
Data from the previous 72 hours. | See also: Recent months at Yarram Airport
Date/Time
EDT
Temp
°C
Wind Pressure Rain since
9am
mm
Weather Cloud Vis
km
Sea
Height
m
Swell
Dir  Spd
kts
Gust
kts
hPa Trend Height
m
Period
s
Dir
05/01:00pm 20.5 WSW 20 27 1010.7 - 0.0 - - - - - - -
05/12:30pm 20.5 WSW 22 28 1010.6 - 0.0 - - - - - - -
05/12:00pm 20.3 WSW 20 27 1010.8 - 0.0 - - - - - - -
05/11:30am 19.9 WSW 22 27 1010.6 - 0.0 - - - - - - -
05/11:00am 19.8 WSW 19 23 1010.7 - 0.0 - - - - - - -
05/10:30am 17.5 SW 16 21 1010.9 - 0.0 - - - - - - -
05/10:00am 16.6 WSW 15 21 1010.8 - 0.0 - - - - - - -
05/09:30am 16.8 WSW 15 20 1010.5 - 0.0 - - - - - - -
05/09:00am 17.3 WSW 17 22 1009.9 - 0.0 - - - - - - -
05/08:30am 17.2 WSW 16 23 1009.3 - 0.0 - - - - - - -
05/08:00am 17.3 WSW 15 24 1008.8 - 0.0 - - - - - - -
05/07:30am 17.5 WSW 19 29 1008.2 - 0.0 - - - - - - -
05/07:26am 17.5 WSW 17 29 1008.2 - 0.0 - - - - - - -
05/07:00am 17.7 WSW 15 21 1007.7 - 0.0 - - - - - - -
05/06:30am 17.7 WSW 23 31 1006.8 - 0.0 - - - - - - -
05/06:07am 18.5 SW 25 35 1005.9 - 0.0 - - - - - - -
05/06:00am 18.7 SW 26 35 1005.5 - 0.0 - - - - - - -
05/05:42am 23.4 WNW 17 36 1004.6 - 0.0 - - - - - - -
05/05:30am 25.0 WNW 10 16 1003.7 - 0.0 - - - - - - -
05/05:00am 24.9 NW 11 15 1003.0 - 0.0 - - - - - - -
05/04:30am 24.6 NW 10 14 1002.7 - 0.0 - - - - - - -
05/04:00am 21.7 NNW 5 11 1002.6 - 0.0 - - - - - - -
05/03:30am 19.1 CALM 0 3 1002.5 - 0.0 - - - - - - -
05/03:00am 19.8 SE 4 5 1002.3 - 0.0 - - - - - - -
05/02:30am 20.3 SE 5 7 1002.6 - 0.0 - - - - - - -
05/02:00am 22.0 E 5 7 1002.9 - 0.0 - - - - - - -
05/01:30am 21.7 ENE 6 8 1003.3 - 0.0 - - - - - - -
05/01:00am 21.5 E 5 6 1003.8 - 0.0 - - - - - - -
05/12:30am 21.9 NNE 9 13 1004.2 - 0.0 - - - - - - -
05/12:00am 21.2 E 5 7 1004.9 - 0.0 - - - - - - -
 
Date/Time
EDT
Temp
°C
Wind Pressure Rain since
9am
mm
Weather Cloud Vis
km
Sea
Height
m
Swell
Dir  Spd
kts
Gust
kts
hPa Trend Height
m
Period
s
Dir
04/11:30pm 22.0 NE 5 8 1005.0 - 0.0 - - - - - - -
04/11:00pm 22.0 N 4 5 1005.8 - 0.0 - - - - - - -
04/10:30pm 22.8 NNW 8 12 1006.1 - 0.0 - - - - - - -
04/10:00pm 23.0 N 7 9 1006.6 - 0.0 - - - - - - -
04/09:30pm 23.4 NW 7 11 1006.8 - 0.0 - - - - - - -
04/09:00pm 24.5 NW 12 16 1006.4 - 0.0 - - - - - - -
04/08:30pm 25.7 NW 17 24 1006.7 - 0.0 - - - - - - -
04/08:00pm 25.7 NW 10 16 1006.7 - 0.0 - - - - - - -
04/07:30pm 25.2 NE 9 11 1005.7 - 0.0 - - - - - - -
04/07:00pm 24.9 ENE 4 6 1005.2 - 0.0 - - - - - - -
04/06:30pm 24.9 E 6 8 1005.1 - 0.0 - - - - - - -
04/06:00pm 25.6 ENE 7 10 1005.3 - 0.0 - - - - - - -
04/05:30pm 25.8 ENE 8 13 1005.5 - 0.0 - - - - - - -
04/05:00pm 25.4 E 9 11 1005.8 - 0.0 - - - - - - -
04/04:30pm 27.4 ENE 8 11 1006.2 - 0.0 - - - - - - -
04/04:00pm 28.4 ENE 10 14 1006.3 - 0.0 - - - - - - -
04/03:30pm 28.1 E 9 14 1006.6 - 0.0 - - - - - - -
04/03:00pm 28.3 E 11 14 1006.9 - 0.0 - - - - - - -
04/02:30pm 27.7 E 11 15 1007.4 - 0.0 - - - - - - -
04/02:00pm 26.1 E 11 17 1008.0 - 0.0 - - - - - - -
04/01:30pm 25.1 E 12 16 1008.3 - 0.0 - - - - - - -
04/01:00pm 26.3 ESE 11 16 1008.8 - 0.0 - - - - - - -
04/12:30pm 25.7 E 10 13 1009.2 - 0.0 - - - - - - -
04/12:00pm 24.7 E 10 14 1009.6 - 0.0 - - - - - - -
04/11:30am 24.6 E 9 14 1010.0 - 0.0 - - - - - - -
04/11:00am 23.8 ENE 8 11 1010.5 - 0.0 - - - - - - -
04/10:30am 22.6 ENE 9 14 1010.9 - 0.0 - - - - - - -
04/10:00am 21.6 NE 9 13 1011.2 - 0.0 - - - - - - -
04/09:30am 20.8 NE 10 14 1011.6 - 0.0 - - - - - - -
04/09:00am 18.7 NE 10 16 1011.5 - 0.0 - - - - - - -
04/08:30am 17.2 NE 9 11 1012.0 - 0.0 - - - - - - -
04/08:00am 16.0 NE 9 13 1012.4 - 0.0 - - - - - - -
04/07:30am 15.3 NNE 8 11 1012.6 - 0.0 - - - - - - -
04/07:00am 14.4 NE 7 10 1012.5 - 0.0 - - - - - - -
04/06:30am 13.3 NE 7 9 1012.8 - 0.0 - - - - - - -
04/06:00am 11.4 NE 5 6 1013.2 - 0.0 - - - - - - -
04/05:30am 10.9 NE 5 7 1013.0 - 0.0 - - - - - - -
04/05:00am 9.8 NE 7 8 1013.0 - 0.0 - - - - - - -
04/04:30am 9.9 NE 5 6 1012.8 - 0.0 - - - - - - -
04/04:00am 10.1 NE 5 7 1012.9 - 0.0 - - - - - - -
04/03:30am 9.2 NE 4 5 1013.2 - 0.0 - - - - - - -
04/03:00am 8.9 NNE 7 7 1013.6 - 0.0 - - - - - - -
04/02:30am 9.4 NE 4 6 1013.8 - 0.0 - - - - - - -
04/02:00am 9.4 NE 6 7 1014.3 - 0.0 - - - - - - -
04/01:30am 9.8 NE 5 7 1014.6 - 0.0 - - - - - - -
04/01:00am 10.2 NE 6 8 1015.1 - 0.0 - - - - - - -
04/12:30am 9.8 NE 6 7 1015.5 - 0.0 - - - - - - -
04/12:00am 9.5 NE 6 8 1016.0 - 0.0 - - - - - - -
 
Date/Time
EDT
Temp
°C
Wind Pressure Rain since
9am
mm
Weather Cloud Vis
km
Sea
Height
m
Swell
Dir  Spd
kts
Gust
kts
hPa Trend Height
m
Period
s
Dir
03/11:30pm 8.8 NE 5 6 1016.1 - 0.0 - - - - - - -
03/11:00pm 8.9 NE 5 6 1016.4 - 0.0 - - - - - - -
03/10:30pm 9.6 NE 5 6 1016.5 - 0.0 - - - - - - -
03/10:00pm 8.6 NNE 5 6 1016.5 - 0.0 - - - - - - -
03/09:30pm 11.4 ENE 5 6 1016.3 - 0.0 - - - - - - -
03/09:00pm 12.2 E 5 6 1016.5 - 0.0 - - - - - - -
03/08:30pm 13.1 E 6 7 1016.4 - 0.0 - - - - - - -
03/08:00pm 14.5 E 6 8 1016.4 - 0.0 - - - - - - -
03/07:30pm 15.5 E 7 11 1016.2 - 0.0 - - - - - - -
03/07:00pm 16.1 E 8 11 1015.9 - 0.0 - - - - - - -
03/06:30pm 16.6 ESE 10 13 1015.6 - 0.0 - - - - - - -
03/06:00pm 17.1 ESE 11 16 1015.4 - 0.0 - - - - - - -
03/05:30pm 17.3 ESE 9 13 1015.4 - 0.0 - - - - - - -
03/05:00pm 18.2 ESE 9 13 1015.5 - 0.0 - - - - - - -
03/04:30pm 18.5 SE 11 14 1015.6 - 0.0 - - - - - - -
03/04:00pm 18.6 SE 10 16 1015.4 - 0.0 - - - - - - -
03/03:30pm 19.2 SE 10 15 1015.4 - 0.0 - - - - - - -
03/03:00pm 19.0 SE 9 14 1015.4 - 0.0 - - - - - - -
03/02:30pm 18.2 SE 9 14 1015.7 - 0.0 - - - - - - -
03/02:00pm 18.9 SE 8 14 1015.7 - 0.0 - - - - - - -
03/01:30pm 18.9 SE 9 15 1016.0 - 0.0 - - - - - - -
03/01:00pm 18.5 SE 8 12 1016.0 - 0.0 - - - - - - -
03/12:30pm 19.2 ESE 9 13 1016.2 - 0.0 - - - - - - -
03/12:00pm 18.6 SSE 11 16 1016.3 - 0.0 - - - - - - -
03/11:30am 18.9 SE 9 13 1016.0 - 0.0 - - - - - - -
03/11:00am 18.4 ESE 3 10 1016.1 - 0.0 - - - - - - -
03/10:30am 17.4 NNW 3 5 1016.3 - 0.0 - - - - - - -
03/10:00am 16.5 ENE 1 5 1016.5 - 0.0 - - - - - - -
03/09:30am 16.4 CALM 0 0 1016.6 - 0.0 - - - - - - -
03/09:00am 15.3 SSW 3 5 1016.6 - 0.0 - - - - - - -
03/08:30am 15.0 NNW 1 4 1016.6 - 0.0 - - - - - - -
03/08:00am 13.5 NW 3 4 1016.3 - 0.0 - - - - - - -
03/07:30am 11.2 CALM 0 0 1016.2 - 0.0 - - - - - - -
03/07:00am 9.3 CALM 0 0 1016.0 - 0.0 - - - - - - -
03/06:30am 7.4 CALM 0 0 1015.9 - 0.0 - - - - - - -
03/06:00am 6.1 CALM 0 0 1015.7 - 0.0 - - - - - - -
03/05:30am 4.9 CALM 0 0 1015.5 - 0.0 - - - - - - -
03/05:00am 5.3 CALM 0 0 1015.2 - 0.0 - - - - - - -
03/04:30am 4.8 NW 2 4 1015.1 - 0.0 - - - - - - -
03/04:00am 6.6 W 6 6 1015.1 - 0.0 - - - - - - -
03/03:30am 6.0 W 3 4 1015.3 - 0.0 - - - - - - -
03/03:00am 7.1 NW 4 4 1015.6 - 0.0 - - - - - - -
03/02:30am 7.6 NNW 5 6 1015.8 - 0.0 - - - - - - -
03/02:00am 7.5 NNW 5 6 1015.9 - 0.0 - - - - - - -
03/01:30am 7.4 NNW 5 6 1016.2 - 0.0 - - - - - - -
03/01:00am 8.1 NNW 6 7 1016.2 - 0.0 - - - - - - -
03/12:30am 9.1 NNW 6 7 1016.3 - 0.0 - - - - - - -
03/12:00am 8.1 NNW 5 6 1016.5 - 0.0 - - - - - - -
 
Date/Time
EDT
Temp
°C
Wind Pressure Rain since
9am
mm
Weather Cloud Vis
km
Sea
Height
m
Swell
Dir  Spd
kts
Gust
kts
hPa Trend Height
m
Period
s
Dir
02/11:30pm 7.4 N 5 6 1016.4 - 0.0 - - - - - - -
02/11:00pm 7.9 NNW 4 5 1016.4 - 0.0 - - - - - - -
02/10:30pm 10.7 NW 3 5 1016.4 - 0.0 - - - - - - -
02/10:00pm 9.9 N 5 7 1016.2 - 0.0 - - - - - - -
02/09:30pm 10.2 NNE 4 6 1015.7 - 0.0 - - - - - - -
02/09:00pm 12.6 WSW 7 8 1015.2 - 0.0 - - - - - - -
02/08:30pm 13.4 WSW 10 13 1014.7 - 0.0 - - - - - - -
02/08:00pm 14.7 WSW 13 17 1014.2 - 0.0 - - - - - - -
02/07:30pm 15.9 SW 14 20 1013.8 - 0.0 - - - - - - -
02/07:00pm 16.7 SW 16 21 1013.5 - 0.0 - - - - - - -
02/06:30pm 17.1 SW 18 23 1013.0 - 0.0 - - - - - - -
02/06:00pm 18.1 SW 19 27 1012.7 - 0.0 - - - - - - -
02/05:30pm 18.6 SW 19 24 1012.5 - 0.0 - - - - - - -
02/05:00pm 19.1 SW 20 26 1012.1 - 0.0 - - - - - - -
02/04:30pm 19.1 SW 21 28 1011.6 - 0.0 - - - - - - -
02/04:00pm 19.9 WSW 23 29 1011.4 - 0.0 - - - - - - -
02/03:30pm 20.6 SW 22 27 1011.5 - 0.0 - - - - - - -
02/03:00pm 21.3 SW 20 25 1011.6 - 0.0 - - - - - - -
02/02:30pm 20.4 SW 22 29 1011.5 - 0.0 - - - - - - -
02/02:00pm 20.8 SW 22 28 1011.3 - 0.0 - - - - - - -
02/01:30pm 21.0 WSW 18 25 1011.1 - 0.0 - - - - - - -

Other Formats:

Comma delimited format used in spreadsheet applications
http://www.bom.gov.au/fwo/IDV60701/IDV60701.95890.axf

JavaScript Object Notation format (JSON) in row-major order
http://www.bom.gov.au/fwo/IDV60701/IDV60701.95890.json